sensor_id;sensor_type;location;lat;lon;timestamp;temperature;humidity
78649;DHT22;67962;47.310;9.642;2023-06-14T00:00:12;17.80;41.10
78649;DHT22;67962;47.310;9.642;2023-06-14T00:02:41;17.80;41.10
78649;DHT22;67962;47.310;9.642;2023-06-14T00:05:09;17.80;40.90
78649;DHT22;67962;47.310;9.642;2023-06-14T00:07:41;17.70;40.90
78649;DHT22;67962;47.310;9.642;2023-06-14T00:10:11;17.60;40.90
78649;DHT22;67962;47.310;9.642;2023-06-14T00:12:38;17.60;41.10
78649;DHT22;67962;47.310;9.642;2023-06-14T00:15:04;17.60;41.60
78649;DHT22;67962;47.310;9.642;2023-06-14T00:17:31;17.50;41.30
78649;DHT22;67962;47.310;9.642;2023-06-14T00:19:57;17.60;41.30
78649;DHT22;67962;47.310;9.642;2023-06-14T00:22:23;17.50;42.10
78649;DHT22;67962;47.310;9.642;2023-06-14T00:24:56;17.40;42.40
78649;DHT22;67962;47.310;9.642;2023-06-14T00:27:22;17.40;42.10
78649;DHT22;67962;47.310;9.642;2023-06-14T00:29:47;17.40;41.90
78649;DHT22;67962;47.310;9.642;2023-06-14T00:32:13;17.30;42.00
78649;DHT22;67962;47.310;9.642;2023-06-14T00:34:39;17.30;42.10
78649;DHT22;67962;47.310;9.642;2023-06-14T00:37:05;17.40;41.70
78649;DHT22;67962;47.310;9.642;2023-06-14T00:39:30;17.40;41.50
78649;DHT22;67962;47.310;9.642;2023-06-14T00:41:56;17.40;41.00
78649;DHT22;67962;47.310;9.642;2023-06-14T00:44:23;17.50;40.90
78649;DHT22;67962;47.310;9.642;2023-06-14T00:46:49;17.50;40.50
78649;DHT22;67962;47.310;9.642;2023-06-14T00:49:16;17.40;40.60
78649;DHT22;67962;47.310;9.642;2023-06-14T00:51:43;17.30;41.30
78649;DHT22;67962;47.310;9.642;2023-06-14T00:54:09;17.30;41.90
78649;DHT22;67962;47.310;9.642;2023-06-14T00:56:38;17.30;42.00
78649;DHT22;67962;47.310;9.642;2023-06-14T00:59:04;17.30;42.10
78649;DHT22;67962;47.310;9.642;2023-06-14T01:01:31;17.20;42.10
78649;DHT22;67962;47.310;9.642;2023-06-14T01:04:00;17.10;42.20
78649;DHT22;67962;47.310;9.642;2023-06-14T01:06:58;17.10;41.70
78649;DHT22;67962;47.310;9.642;2023-06-14T01:09:43;17.00;42.00
78649;DHT22;67962;47.310;9.642;2023-06-14T01:12:17;16.90;42.60
78649;DHT22;67962;47.310;9.642;2023-06-14T01:14:48;16.90;43.40
78649;DHT22;67962;47.310;9.642;2023-06-14T01:17:15;16.90;43.50
78649;DHT22;67962;47.310;9.642;2023-06-14T01:19:45;17.00;43.20
78649;DHT22;67962;47.310;9.642;2023-06-14T01:22:11;16.90;42.60
78649;DHT22;67962;47.310;9.642;2023-06-14T01:24:37;16.80;42.90
78649;DHT22;67962;47.310;9.642;2023-06-14T01:27:05;16.80;43.20
78649;DHT22;67962;47.310;9.642;2023-06-14T01:29:33;16.80;43.00
78649;DHT22;67962;47.310;9.642;2023-06-14T01:32:02;16.70;42.80
78649;DHT22;67962;47.310;9.642;2023-06-14T01:34:28;16.70;43.50
78649;DHT22;67962;47.310;9.642;2023-06-14T01:36:54;16.70;43.00
78649;DHT22;67962;47.310;9.642;2023-06-14T01:39:21;16.70;43.40
78649;DHT22;67962;47.310;9.642;2023-06-14T01:41:49;16.60;43.80
78649;DHT22;67962;47.310;9.642;2023-06-14T01:44:17;16.60;43.60
78649;DHT22;67962;47.310;9.642;2023-06-14T01:46:44;16.60;43.50
78649;DHT22;67962;47.310;9.642;2023-06-14T01:49:11;16.60;43.80
78649;DHT22;67962;47.310;9.642;2023-06-14T01:51:37;16.60;43.80
78649;DHT22;67962;47.310;9.642;2023-06-14T01:54:03;16.60;43.40
78649;DHT22;67962;47.310;9.642;2023-06-14T01:56:28;16.60;44.80
78649;DHT22;67962;47.310;9.642;2023-06-14T01:58:54;16.60;43.90
78649;DHT22;67962;47.310;9.642;2023-06-14T02:01:20;16.60;43.70
78649;DHT22;67962;47.310;9.642;2023-06-14T02:03:47;16.60;43.60
78649;DHT22;67962;47.310;9.642;2023-06-14T02:06:13;16.40;44.10
78649;DHT22;67962;47.310;9.642;2023-06-14T02:08:41;16.40;44.90
78649;DHT22;67962;47.310;9.642;2023-06-14T02:11:08;16.40;44.80
78649;DHT22;67962;47.310;9.642;2023-06-14T02:13:34;16.30;44.70
78649;DHT22;67962;47.310;9.642;2023-06-14T02:16:00;16.30;44.90
78649;DHT22;67962;47.310;9.642;2023-06-14T02:18:26;16.30;45.00
78649;DHT22;67962;47.310;9.642;2023-06-14T02:20:52;16.30;44.80
78649;DHT22;67962;47.310;9.642;2023-06-14T02:23:18;16.20;45.60
78649;DHT22;67962;47.310;9.642;2023-06-14T02:25:44;16.10;45.40
78649;DHT22;67962;47.310;9.642;2023-06-14T02:28:11;16.10;45.60
78649;DHT22;67962;47.310;9.642;2023-06-14T02:30:37;16.10;44.90
78649;DHT22;67962;47.310;9.642;2023-06-14T02:33:03;16.10;44.80
78649;DHT22;67962;47.310;9.642;2023-06-14T02:35:30;16.00;45.30
78649;DHT22;67962;47.310;9.642;2023-06-14T02:37:56;15.90;45.80
78649;DHT22;67962;47.310;9.642;2023-06-14T02:40:22;15.90;45.60
78649;DHT22;67962;47.310;9.642;2023-06-14T02:42:48;15.90;45.60
78649;DHT22;67962;47.310;9.642;2023-06-14T02:45:13;15.90;45.70
78649;DHT22;67962;47.310;9.642;2023-06-14T02:47:40;15.90;45.70
78649;DHT22;67962;47.310;9.642;2023-06-14T02:50:06;16.00;45.30
78649;DHT22;67962;47.310;9.642;2023-06-14T02:52:33;15.90;45.90
78649;DHT22;67962;47.310;9.642;2023-06-14T02:54:58;16.00;46.40
78649;DHT22;67962;47.310;9.642;2023-06-14T02:57:24;15.90;45.80
78649;DHT22;67962;47.310;9.642;2023-06-14T02:59:50;15.80;45.70
78649;DHT22;67962;47.310;9.642;2023-06-14T03:02:15;15.70;45.90
78649;DHT22;67962;47.310;9.642;2023-06-14T03:04:42;15.70;46.00
78649;DHT22;67962;47.310;9.642;2023-06-14T03:07:09;15.60;46.10
78649;DHT22;67962;47.310;9.642;2023-06-14T03:09:39;15.70;46.60
78649;DHT22;67962;47.310;9.642;2023-06-14T03:12:05;15.80;46.30
78649;DHT22;67962;47.310;9.642;2023-06-14T03:14:35;15.90;45.70
78649;DHT22;67962;47.310;9.642;2023-06-14T03:17:01;15.80;45.30
78649;DHT22;67962;47.310;9.642;2023-06-14T03:19:27;15.80;45.50
78649;DHT22;67962;47.310;9.642;2023-06-14T03:21:53;15.70;45.30
78649;DHT22;67962;47.310;9.642;2023-06-14T03:24:23;15.80;45.40
78649;DHT22;67962;47.310;9.642;2023-06-14T03:26:49;15.90;45.40
78649;DHT22;67962;47.310;9.642;2023-06-14T03:29:15;15.90;45.40
78649;DHT22;67962;47.310;9.642;2023-06-14T03:31:57;16.00;44.90
78649;DHT22;67962;47.310;9.642;2023-06-14T03:34:23;15.80;45.40
78649;DHT22;67962;47.310;9.642;2023-06-14T03:36:49;15.70;46.10
78649;DHT22;67962;47.310;9.642;2023-06-14T03:39:15;15.70;46.10
78649;DHT22;67962;47.310;9.642;2023-06-14T03:41:40;15.70;46.30
78649;DHT22;67962;47.310;9.642;2023-06-14T03:44:06;15.70;46.40
78649;DHT22;67962;47.310;9.642;2023-06-14T03:46:32;15.60;46.70
78649;DHT22;67962;47.310;9.642;2023-06-14T03:48:57;15.60;47.10
78649;DHT22;67962;47.310;9.642;2023-06-14T03:51:23;15.50;47.80
78649;DHT22;67962;47.310;9.642;2023-06-14T03:53:50;15.40;47.70
78649;DHT22;67962;47.310;9.642;2023-06-14T03:56:16;15.40;47.90
78649;DHT22;67962;47.310;9.642;2023-06-14T03:58:42;15.40;47.50
78649;DHT22;67962;47.310;9.642;2023-06-14T04:01:07;15.50;47.90
78649;DHT22;67962;47.310;9.642;2023-06-14T04:03:33;15.50;47.90
78649;DHT22;67962;47.310;9.642;2023-06-14T04:05:59;15.60;48.00
78649;DHT22;67962;47.310;9.642;2023-06-14T04:08:25;15.60;47.50
78649;DHT22;67962;47.310;9.642;2023-06-14T04:10:51;15.60;47.20
78649;DHT22;67962;47.310;9.642;2023-06-14T04:13:17;15.70;47.60
78649;DHT22;67962;47.310;9.642;2023-06-14T04:15:43;15.80;47.70
78649;DHT22;67962;47.310;9.642;2023-06-14T04:18:12;15.80;47.20
78649;DHT22;67962;47.310;9.642;2023-06-14T04:20:38;15.90;46.80
78649;DHT22;67962;47.310;9.642;2023-06-14T04:23:16;16.00;47.00
78649;DHT22;67962;47.310;9.642;2023-06-14T04:25:44;16.10;47.20
78649;DHT22;67962;47.310;9.642;2023-06-14T04:28:13;16.00;47.80
78649;DHT22;67962;47.310;9.642;2023-06-14T04:30:40;16.00;48.10
78649;DHT22;67962;47.310;9.642;2023-06-14T04:33:06;16.00;47.80
78649;DHT22;67962;47.310;9.642;2023-06-14T04:35:32;15.90;48.50
78649;DHT22;67962;47.310;9.642;2023-06-14T04:37:58;15.90;49.00
78649;DHT22;67962;47.310;9.642;2023-06-14T04:40:24;16.00;49.20
78649;DHT22;67962;47.310;9.642;2023-06-14T04:42:50;16.10;49.40
78649;DHT22;67962;47.310;9.642;2023-06-14T04:45:16;16.10;49.30
78649;DHT22;67962;47.310;9.642;2023-06-14T04:47:42;16.10;49.60
78649;DHT22;67962;47.310;9.642;2023-06-14T04:50:10;16.20;49.50
78649;DHT22;67962;47.310;9.642;2023-06-14T04:52:36;16.20;49.20
78649;DHT22;67962;47.310;9.642;2023-06-14T04:55:03;16.30;49.50
78649;DHT22;67962;47.310;9.642;2023-06-14T04:57:29;16.40;49.90
78649;DHT22;67962;47.310;9.642;2023-06-14T04:59:55;16.40;49.70
78649;DHT22;67962;47.310;9.642;2023-06-14T05:02:24;16.50;50.70
78649;DHT22;67962;47.310;9.642;2023-06-14T05:04:51;16.60;50.50
78649;DHT22;67962;47.310;9.642;2023-06-14T05:07:17;17.00;48.50
78649;DHT22;67962;47.310;9.642;2023-06-14T05:09:43;17.40;48.50
78649;DHT22;67962;47.310;9.642;2023-06-14T05:12:09;17.90;47.30
78649;DHT22;67962;47.310;9.642;2023-06-14T05:14:35;18.10;47.00
78649;DHT22;67962;47.310;9.642;2023-06-14T05:17:01;18.30;46.40
78649;DHT22;67962;47.310;9.642;2023-06-14T05:19:28;18.60;45.80
78649;DHT22;67962;47.310;9.642;2023-06-14T05:21:54;19.00;43.60
78649;DHT22;67962;47.310;9.642;2023-06-14T05:24:20;19.20;41.60
78649;DHT22;67962;47.310;9.642;2023-06-14T05:26:46;19.60;40.70
78649;DHT22;67962;47.310;9.642;2023-06-14T05:29:12;20.10;39.30
78649;DHT22;67962;47.310;9.642;2023-06-14T05:31:38;20.40;38.10
78649;DHT22;67962;47.310;9.642;2023-06-14T05:34:04;20.50;38.50
78649;DHT22;67962;47.310;9.642;2023-06-14T05:36:30;20.80;38.50
78649;DHT22;67962;47.310;9.642;2023-06-14T05:38:56;21.20;38.20
78649;DHT22;67962;47.310;9.642;2023-06-14T05:41:27;21.80;37.30
78649;DHT22;67962;47.310;9.642;2023-06-14T05:43:55;22.20;36.10
78649;DHT22;67962;47.310;9.642;2023-06-14T05:46:21;22.30;35.90
78649;DHT22;67962;47.310;9.642;2023-06-14T05:48:50;22.30;36.80
78649;DHT22;67962;47.310;9.642;2023-06-14T05:51:16;22.40;36.00
78649;DHT22;67962;47.310;9.642;2023-06-14T05:53:47;22.40;35.60
78649;DHT22;67962;47.310;9.642;2023-06-14T05:56:13;22.40;34.60
78649;DHT22;67962;47.310;9.642;2023-06-14T05:58:39;22.10;36.10
78649;DHT22;67962;47.310;9.642;2023-06-14T06:01:05;22.40;36.80
78649;DHT22;67962;47.310;9.642;2023-06-14T06:03:31;22.80;35.60
78649;DHT22;67962;47.310;9.642;2023-06-14T06:05:58;23.20;34.60
78649;DHT22;67962;47.310;9.642;2023-06-14T06:08:24;23.20;34.50
78649;DHT22;67962;47.310;9.642;2023-06-14T06:10:49;23.40;32.30
78649;DHT22;67962;47.310;9.642;2023-06-14T06:13:15;23.60;33.70
78649;DHT22;67962;47.310;9.642;2023-06-14T06:15:41;23.90;31.70
78649;DHT22;67962;47.310;9.642;2023-06-14T06:18:07;24.30;29.90
78649;DHT22;67962;47.310;9.642;2023-06-14T06:20:33;24.50;29.30
78649;DHT22;67962;47.310;9.642;2023-06-14T06:22:59;24.40;30.30
78649;DHT22;67962;47.310;9.642;2023-06-14T06:25:28;24.10;30.80
78649;DHT22;67962;47.310;9.642;2023-06-14T06:27:54;24.20;30.90
78649;DHT22;67962;47.310;9.642;2023-06-14T06:30:24;24.00;31.40
78649;DHT22;67962;47.310;9.642;2023-06-14T06:32:50;24.10;31.60
78649;DHT22;67962;47.310;9.642;2023-06-14T06:35:16;24.50;31.20
78649;DHT22;67962;47.310;9.642;2023-06-14T06:37:43;24.90;29.10
78649;DHT22;67962;47.310;9.642;2023-06-14T06:40:09;25.00;28.90
78649;DHT22;67962;47.310;9.642;2023-06-14T06:42:35;25.00;29.40
78649;DHT22;67962;47.310;9.642;2023-06-14T06:45:01;24.90;28.80
78649;DHT22;67962;47.310;9.642;2023-06-14T06:47:27;25.00;28.80
78649;DHT22;67962;47.310;9.642;2023-06-14T06:49:53;25.00;28.80
78649;DHT22;67962;47.310;9.642;2023-06-14T06:52:19;25.20;28.80
78649;DHT22;67962;47.310;9.642;2023-06-14T06:54:45;25.10;28.20
78649;DHT22;67962;47.310;9.642;2023-06-14T06:57:10;25.40;29.30
78649;DHT22;67962;47.310;9.642;2023-06-14T06:59:36;25.80;28.70
78649;DHT22;67962;47.310;9.642;2023-06-14T07:02:03;26.20;28.30
78649;DHT22;67962;47.310;9.642;2023-06-14T07:04:28;26.70;27.90
78649;DHT22;67962;47.310;9.642;2023-06-14T07:06:54;27.00;27.60
78649;DHT22;67962;47.310;9.642;2023-06-14T07:09:20;27.30;27.20
78649;DHT22;67962;47.310;9.642;2023-06-14T07:11:47;27.60;26.70
78649;DHT22;67962;47.310;9.642;2023-06-14T07:14:13;27.70;26.40
78649;DHT22;67962;47.310;9.642;2023-06-14T07:16:39;28.00;26.30
78649;DHT22;67962;47.310;9.642;2023-06-14T07:19:04;28.00;25.60
78649;DHT22;67962;47.310;9.642;2023-06-14T07:21:30;27.50;26.10
78649;DHT22;67962;47.310;9.642;2023-06-14T07:23:56;27.00;25.60
78649;DHT22;67962;47.310;9.642;2023-06-14T07:26:22;26.70;26.30
78649;DHT22;67962;47.310;9.642;2023-06-14T07:28:48;26.70;26.40
78649;DHT22;67962;47.310;9.642;2023-06-14T07:31:17;27.00;27.40
78649;DHT22;67962;47.310;9.642;2023-06-14T07:33:45;27.20;27.10
78649;DHT22;67962;47.310;9.642;2023-06-14T07:36:10;27.20;25.90
78649;DHT22;67962;47.310;9.642;2023-06-14T07:38:36;26.70;26.00
78649;DHT22;67962;47.310;9.642;2023-06-14T07:41:02;26.60;27.80
78649;DHT22;67962;47.310;9.642;2023-06-14T07:43:28;26.60;26.70
78649;DHT22;67962;47.310;9.642;2023-06-14T07:45:54;26.90;26.80
78649;DHT22;67962;47.310;9.642;2023-06-14T07:48:20;26.90;27.30
78649;DHT22;67962;47.310;9.642;2023-06-14T07:50:46;27.10;26.70
78649;DHT22;67962;47.310;9.642;2023-06-14T07:53:12;27.40;26.70
78649;DHT22;67962;47.310;9.642;2023-06-14T07:55:37;27.40;25.90
78649;DHT22;67962;47.310;9.642;2023-06-14T07:58:08;27.70;26.10
78649;DHT22;67962;47.310;9.642;2023-06-14T08:00:34;27.60;25.20
78649;DHT22;67962;47.310;9.642;2023-06-14T08:03:00;27.80;25.20
78649;DHT22;67962;47.310;9.642;2023-06-14T08:05:26;28.20;25.20
78649;DHT22;67962;47.310;9.642;2023-06-14T08:07:52;28.10;25.10
78649;DHT22;67962;47.310;9.642;2023-06-14T08:10:18;28.20;24.90
78649;DHT22;67962;47.310;9.642;2023-06-14T08:12:44;28.30;25.50
78649;DHT22;67962;47.310;9.642;2023-06-14T08:15:10;28.30;25.40
78649;DHT22;67962;47.310;9.642;2023-06-14T08:17:36;28.50;25.00
78649;DHT22;67962;47.310;9.642;2023-06-14T08:20:02;28.30;23.70
78649;DHT22;67962;47.310;9.642;2023-06-14T08:22:30;28.50;25.80
78649;DHT22;67962;47.310;9.642;2023-06-14T08:24:59;29.00;23.90
78649;DHT22;67962;47.310;9.642;2023-06-14T08:27:26;28.60;23.40
78649;DHT22;67962;47.310;9.642;2023-06-14T08:29:52;28.70;23.50
78649;DHT22;67962;47.310;9.642;2023-06-14T08:32:17;29.00;23.80
78649;DHT22;67962;47.310;9.642;2023-06-14T08:34:43;29.00;23.30
78649;DHT22;67962;47.310;9.642;2023-06-14T08:37:09;29.40;23.70
78649;DHT22;67962;47.310;9.642;2023-06-14T08:39:34;29.70;24.50
78649;DHT22;67962;47.310;9.642;2023-06-14T08:42:02;29.80;23.40
78649;DHT22;67962;47.310;9.642;2023-06-14T08:44:29;29.80;23.40
78649;DHT22;67962;47.310;9.642;2023-06-14T08:46:56;29.90;22.80
78649;DHT22;67962;47.310;9.642;2023-06-14T08:49:25;29.90;23.00
78649;DHT22;67962;47.310;9.642;2023-06-14T08:51:58;29.70;22.40
78649;DHT22;67962;47.310;9.642;2023-06-14T08:54:27;29.80;23.00
78649;DHT22;67962;47.310;9.642;2023-06-14T08:56:55;29.70;21.60
78649;DHT22;67962;47.310;9.642;2023-06-14T08:59:28;29.90;22.80
78649;DHT22;67962;47.310;9.642;2023-06-14T09:01:54;29.90;22.20
78649;DHT22;67962;47.310;9.642;2023-06-14T09:04:23;29.70;22.70
78649;DHT22;67962;47.310;9.642;2023-06-14T09:06:55;29.90;22.60
78649;DHT22;67962;47.310;9.642;2023-06-14T09:09:21;29.90;23.10
78649;DHT22;67962;47.310;9.642;2023-06-14T09:11:51;29.80;23.60
78649;DHT22;67962;47.310;9.642;2023-06-14T09:14:21;30.00;24.00
78649;DHT22;67962;47.310;9.642;2023-06-14T09:16:47;30.30;23.50
78649;DHT22;67962;47.310;9.642;2023-06-14T09:19:23;30.20;23.60
78649;DHT22;67962;47.310;9.642;2023-06-14T09:21:49;30.40;22.70
78649;DHT22;67962;47.310;9.642;2023-06-14T09:24:15;30.60;23.30
78649;DHT22;67962;47.310;9.642;2023-06-14T09:26:41;30.70;22.70
78649;DHT22;67962;47.310;9.642;2023-06-14T09:29:06;30.30;22.40
78649;DHT22;67962;47.310;9.642;2023-06-14T09:31:32;30.20;22.80
78649;DHT22;67962;47.310;9.642;2023-06-14T09:33:58;29.90;23.10
78649;DHT22;67962;47.310;9.642;2023-06-14T09:36:27;29.60;23.30
78649;DHT22;67962;47.310;9.642;2023-06-14T09:43:59;30.30;24.50
78649;DHT22;67962;47.310;9.642;2023-06-14T09:46:27;29.90;23.60
78649;DHT22;67962;47.310;9.642;2023-06-14T09:48:53;29.90;24.00
78649;DHT22;67962;47.310;9.642;2023-06-14T09:51:19;30.00;23.50
78649;DHT22;67962;47.310;9.642;2023-06-14T09:53:49;30.20;23.50
78649;DHT22;67962;47.310;9.642;2023-06-14T09:56:23;30.20;23.90
78649;DHT22;67962;47.310;9.642;2023-06-14T09:58:55;30.30;23.20
78649;DHT22;67962;47.310;9.642;2023-06-14T10:01:22;30.20;22.40
78649;DHT22;67962;47.310;9.642;2023-06-14T10:03:50;30.30;22.50
78649;DHT22;67962;47.310;9.642;2023-06-14T10:06:19;30.20;23.10
78649;DHT22;67962;47.310;9.642;2023-06-14T10:08:47;30.20;22.90
78649;DHT22;67962;47.310;9.642;2023-06-14T10:11:14;29.70;21.70
78649;DHT22;67962;47.310;9.642;2023-06-14T10:13:40;29.60;23.00
78649;DHT22;67962;47.310;9.642;2023-06-14T10:16:14;29.70;23.30
78649;DHT22;67962;47.310;9.642;2023-06-14T10:24:44;30.20;23.00
78649;DHT22;67962;47.310;9.642;2023-06-14T10:27:13;30.60;23.50
78649;DHT22;67962;47.310;9.642;2023-06-14T10:32:24;31.00;23.10
78649;DHT22;67962;47.310;9.642;2023-06-14T10:34:58;31.00;23.30
78649;DHT22;67962;47.310;9.642;2023-06-14T10:37:24;31.10;22.50
78649;DHT22;67962;47.310;9.642;2023-06-14T10:39:51;31.20;22.50
78649;DHT22;67962;47.310;9.642;2023-06-14T10:42:17;31.40;22.50
78649;DHT22;67962;47.310;9.642;2023-06-14T10:44:53;31.10;22.00
78649;DHT22;67962;47.310;9.642;2023-06-14T10:47:34;30.90;23.00
78649;DHT22;67962;47.310;9.642;2023-06-14T10:50:07;31.30;23.40
78649;DHT22;67962;47.310;9.642;2023-06-14T10:52:41;31.20;21.70
78649;DHT22;67962;47.310;9.642;2023-06-14T10:57:48;30.70;22.60
78649;DHT22;67962;47.310;9.642;2023-06-14T11:00:18;30.60;22.00
78649;DHT22;67962;47.310;9.642;2023-06-14T11:05:26;30.70;22.50
78649;DHT22;67962;47.310;9.642;2023-06-14T11:11:07;31.00;22.70
78649;DHT22;67962;47.310;9.642;2023-06-14T11:13:33;31.10;20.30
78649;DHT22;67962;47.310;9.642;2023-06-14T11:15:59;30.70;21.50
78649;DHT22;67962;47.310;9.642;2023-06-14T11:18:25;30.80;21.60
78649;DHT22;67962;47.310;9.642;2023-06-14T11:20:53;31.00;21.50
78649;DHT22;67962;47.310;9.642;2023-06-14T11:23:19;31.10;20.90
78649;DHT22;67962;47.310;9.642;2023-06-14T11:25:51;31.20;21.30
78649;DHT22;67962;47.310;9.642;2023-06-14T11:28:17;31.00;20.50
78649;DHT22;67962;47.310;9.642;2023-06-14T11:30:45;31.00;21.50
78649;DHT22;67962;47.310;9.642;2023-06-14T11:33:14;31.00;21.10
78649;DHT22;67962;47.310;9.642;2023-06-14T11:35:42;30.70;21.10
78649;DHT22;67962;47.310;9.642;2023-06-14T11:38:10;30.80;22.20
78649;DHT22;67962;47.310;9.642;2023-06-14T11:40:38;31.10;22.30
78649;DHT22;67962;47.310;9.642;2023-06-14T11:43:04;31.10;20.60
78649;DHT22;67962;47.310;9.642;2023-06-14T11:45:30;31.00;20.90
78649;DHT22;67962;47.310;9.642;2023-06-14T11:48:00;31.00;21.00
78649;DHT22;67962;47.310;9.642;2023-06-14T11:50:26;30.90;20.60
78649;DHT22;67962;47.310;9.642;2023-06-14T11:52:59;31.00;21.00
78649;DHT22;67962;47.310;9.642;2023-06-14T11:55:36;31.30;21.10
78649;DHT22;67962;47.310;9.642;2023-06-14T11:58:02;31.10;20.40
78649;DHT22;67962;47.310;9.642;2023-06-14T12:00:29;30.90;20.00
78649;DHT22;67962;47.310;9.642;2023-06-14T12:02:55;30.70;20.50
78649;DHT22;67962;47.310;9.642;2023-06-14T12:05:22;30.90;21.20
78649;DHT22;67962;47.310;9.642;2023-06-14T12:07:48;31.10;20.80
78649;DHT22;67962;47.310;9.642;2023-06-14T12:10:14;31.10;20.30
78649;DHT22;67962;47.310;9.642;2023-06-14T12:12:40;30.90;18.90
78649;DHT22;67962;47.310;9.642;2023-06-14T12:15:08;30.90;21.00
78649;DHT22;67962;47.310;9.642;2023-06-14T12:17:35;30.90;20.00
78649;DHT22;67962;47.310;9.642;2023-06-14T12:20:06;30.80;19.90
78649;DHT22;67962;47.310;9.642;2023-06-14T12:22:53;30.90;20.30
78649;DHT22;67962;47.310;9.642;2023-06-14T12:25:30;30.60;19.00
78649;DHT22;67962;47.310;9.642;2023-06-14T12:28:08;30.40;19.10
78649;DHT22;67962;47.310;9.642;2023-06-14T12:30:36;30.20;19.60
78649;DHT22;67962;47.310;9.642;2023-06-14T12:33:03;30.10;20.90
78649;DHT22;67962;47.310;9.642;2023-06-14T12:35:29;30.40;19.80
78649;DHT22;67962;47.310;9.642;2023-06-14T12:37:55;30.60;20.50
78649;DHT22;67962;47.310;9.642;2023-06-14T12:40:21;30.60;19.40
78649;DHT22;67962;47.310;9.642;2023-06-14T12:42:47;30.60;19.60
78649;DHT22;67962;47.310;9.642;2023-06-14T12:45:13;30.60;18.80
78649;DHT22;67962;47.310;9.642;2023-06-14T12:47:39;30.50;19.20
78649;DHT22;67962;47.310;9.642;2023-06-14T12:50:05;30.50;20.00
78649;DHT22;67962;47.310;9.642;2023-06-14T12:52:32;30.50;19.90
78649;DHT22;67962;47.310;9.642;2023-06-14T12:55:04;30.20;19.70
78649;DHT22;67962;47.310;9.642;2023-06-14T12:57:30;30.10;19.30
78649;DHT22;67962;47.310;9.642;2023-06-14T12:59:55;30.30;20.10
78649;DHT22;67962;47.310;9.642;2023-06-14T13:02:21;30.40;19.70
78649;DHT22;67962;47.310;9.642;2023-06-14T13:04:51;30.40;19.70
78649;DHT22;67962;47.310;9.642;2023-06-14T13:07:17;30.30;18.60
78649;DHT22;67962;47.310;9.642;2023-06-14T13:09:43;30.30;19.90
78649;DHT22;67962;47.310;9.642;2023-06-14T13:12:10;30.40;19.90
78649;DHT22;67962;47.310;9.642;2023-06-14T13:14:37;30.50;19.60
78649;DHT22;67962;47.310;9.642;2023-06-14T13:17:03;30.50;19.10
78649;DHT22;67962;47.310;9.642;2023-06-14T13:19:29;30.40;19.40
78649;DHT22;67962;47.310;9.642;2023-06-14T13:21:55;30.30;19.60
78649;DHT22;67962;47.310;9.642;2023-06-14T13:24:21;30.20;19.70
78649;DHT22;67962;47.310;9.642;2023-06-14T13:26:47;30.00;20.60
78649;DHT22;67962;47.310;9.642;2023-06-14T13:29:12;29.90;19.80
78649;DHT22;67962;47.310;9.642;2023-06-14T13:31:38;30.10;19.80
78649;DHT22;67962;47.310;9.642;2023-06-14T13:34:04;29.90;19.40
78649;DHT22;67962;47.310;9.642;2023-06-14T13:36:30;30.00;19.30
78649;DHT22;67962;47.310;9.642;2023-06-14T13:38:55;29.90;21.20
78649;DHT22;67962;47.310;9.642;2023-06-14T13:41:21;29.90;21.00
78649;DHT22;67962;47.310;9.642;2023-06-14T13:43:47;30.00;20.20
78649;DHT22;67962;47.310;9.642;2023-06-14T13:46:13;30.20;20.70
78649;DHT22;67962;47.310;9.642;2023-06-14T13:48:38;30.30;20.70
78649;DHT22;67962;47.310;9.642;2023-06-14T13:51:04;30.30;20.70
78649;DHT22;67962;47.310;9.642;2023-06-14T13:53:31;30.30;21.00
78649;DHT22;67962;47.310;9.642;2023-06-14T13:55:57;30.30;20.00
78649;DHT22;67962;47.310;9.642;2023-06-14T13:58:22;30.30;20.70
78649;DHT22;67962;47.310;9.642;2023-06-14T14:00:49;30.20;20.80
78649;DHT22;67962;47.310;9.642;2023-06-14T14:03:15;30.00;19.50
78649;DHT22;67962;47.310;9.642;2023-06-14T14:05:41;29.90;20.20
78649;DHT22;67962;47.310;9.642;2023-06-14T14:08:07;29.80;20.50
78649;DHT22;67962;47.310;9.642;2023-06-14T14:10:32;29.80;20.90
78649;DHT22;67962;47.310;9.642;2023-06-14T14:12:58;29.80;21.20
78649;DHT22;67962;47.310;9.642;2023-06-14T14:15:25;29.90;21.10
78649;DHT22;67962;47.310;9.642;2023-06-14T14:17:50;29.70;21.30
78649;DHT22;67962;47.310;9.642;2023-06-14T14:20:17;29.70;20.50
78649;DHT22;67962;47.310;9.642;2023-06-14T14:22:43;29.80;21.10
78649;DHT22;67962;47.310;9.642;2023-06-14T14:25:09;29.80;20.50
78649;DHT22;67962;47.310;9.642;2023-06-14T14:27:36;29.70;20.80
78649;DHT22;67962;47.310;9.642;2023-06-14T14:30:03;29.70;20.20
78649;DHT22;67962;47.310;9.642;2023-06-14T14:32:29;29.80;21.30
78649;DHT22;67962;47.310;9.642;2023-06-14T14:34:55;29.90;20.20
78649;DHT22;67962;47.310;9.642;2023-06-14T14:37:20;29.90;19.40
78649;DHT22;67962;47.310;9.642;2023-06-14T14:39:46;29.80;19.50
78649;DHT22;67962;47.310;9.642;2023-06-14T14:42:12;29.70;20.00
78649;DHT22;67962;47.310;9.642;2023-06-14T14:44:38;29.80;20.20
78649;DHT22;67962;47.310;9.642;2023-06-14T14:47:05;29.80;19.80
78649;DHT22;67962;47.310;9.642;2023-06-14T14:49:31;29.70;20.20
78649;DHT22;67962;47.310;9.642;2023-06-14T14:51:57;29.50;20.00
78649;DHT22;67962;47.310;9.642;2023-06-14T14:54:23;29.30;19.80
78649;DHT22;67962;47.310;9.642;2023-06-14T14:56:50;29.20;20.00
78649;DHT22;67962;47.310;9.642;2023-06-14T14:59:16;29.00;19.80
78649;DHT22;67962;47.310;9.642;2023-06-14T15:01:42;28.90;20.70
78649;DHT22;67962;47.310;9.642;2023-06-14T15:04:08;28.90;19.90
78649;DHT22;67962;47.310;9.642;2023-06-14T15:06:34;28.80;19.90
78649;DHT22;67962;47.310;9.642;2023-06-14T15:09:03;28.80;20.40
78649;DHT22;67962;47.310;9.642;2023-06-14T15:11:28;28.90;20.50
78649;DHT22;67962;47.310;9.642;2023-06-14T15:13:54;28.70;19.70
78649;DHT22;67962;47.310;9.642;2023-06-14T15:16:20;28.60;19.70
78649;DHT22;67962;47.310;9.642;2023-06-14T15:18:45;28.60;20.40
78649;DHT22;67962;47.310;9.642;2023-06-14T15:21:12;28.80;20.70
78649;DHT22;67962;47.310;9.642;2023-06-14T15:23:38;28.90;20.70
78649;DHT22;67962;47.310;9.642;2023-06-14T15:26:04;29.00;21.30
78649;DHT22;67962;47.310;9.642;2023-06-14T15:28:30;29.10;21.00
78649;DHT22;67962;47.310;9.642;2023-06-14T15:30:58;29.10;20.90
78649;DHT22;67962;47.310;9.642;2023-06-14T15:33:24;29.10;20.90
78649;DHT22;67962;47.310;9.642;2023-06-14T15:35:50;29.20;21.00
78649;DHT22;67962;47.310;9.642;2023-06-14T15:38:16;29.10;20.10
78649;DHT22;67962;47.310;9.642;2023-06-14T15:40:42;28.90;20.10
78649;DHT22;67962;47.310;9.642;2023-06-14T15:43:07;28.90;20.80
78649;DHT22;67962;47.310;9.642;2023-06-14T15:45:33;29.00;20.90
78649;DHT22;67962;47.310;9.642;2023-06-14T15:47:59;28.90;21.00
78649;DHT22;67962;47.310;9.642;2023-06-14T15:50:25;28.90;21.30